• Join FlightAware (Why Join?)
  • Login
  • US Flag 
07:22PM EDT


 

Airport Tracker/Info


-or-


 

Live Flight TrackerFlight Track Log ✈ AAL2137 ✈ 19-Apr-2013 ✈ KDFW - MGGT / GUA

Flight Track Log - Related Links

Times and Time Zones

All times are in EDT time to prevent confusion due to time zone crossing. See the AAL2137 flight status page for this flight to view local times or setup timezone preferences in your user account.

Time Position Orientation Groundspeed Altitude Reporting Facility
EDT Latitude Longitude Course Direction KTS MPH feet Rate Location/Type
06:24PM 32.9300 -97.0510 356° North 175 201 1,800  Level FlightAware
06:24PM 32.9480 -97.0560 347° North 193 222 2,200 1,020 Climbing FlightAware
06:25PM 32.9700 -97.0650 341° North 222 255 2,600 1,620 Climbing FlightAware
06:25PM 32.9990 -97.0810 335° Northwest 242 278 3,700 2,400 Climbing FlightAware
06:26PM 33.0100 -97.0990 306° West 238 274 4,400 2,400 Climbing FlightAware
06:26PM 33.0120 -97.1150 278° West 244 281 4,900 2,400 Climbing FlightAware
06:26PM 33.0090 -97.1430 263° West 250 288 5,800 2,460 Climbing FlightAware
06:27PM 33.0040 -97.1950 263° West 267 307 7,200 2,400 Climbing FlightAware
06:27PM 32.9950 -97.2320 254° West 282 325 8,200 2,220 Climbing FlightAware
06:27PM 32.9840 -97.2460 227° Southwest 292 336 8,700 2,760 Climbing FlightAware
06:28PM 32.9630 -97.2570 204° Southwest 306 352 9,600 2,280 Climbing FlightAware
06:28PM 32.9050 -97.2400 166° South 346 398 10,800 1,800 Climbing FlightAware
06:29PM 32.8400 -97.1920 148° Southeast 376 433 12,200 2,220 Climbing FlightAware
06:30PM 32.7790 -97.1500 150° Southeast 386 444 14,000 2,580 Climbing FlightAware
06:30PM 32.7060 -97.1010 151° Southeast 402 463 15,900 2,640 Climbing FlightAware
06:31PM 32.6400 -97.0570 151° Southeast 406 467 17,800 2,520 Climbing FlightAware
06:32PM 32.5740 -97.0120 150° Southeast 416 479 19,300 2,280 Climbing FlightAware
06:33PM 32.4980 -96.9600 150° Southeast 425 489 21,100 2,220 Climbing FlightAware
06:33PM 32.4290 -96.9130 150° Southeast 430 495 22,500 1,980 Climbing FlightAware
06:34PM 32.3721 -96.8745 150° Southeast 437 503 23,500 1,740 Climbing FlightAware ADS-B
06:34PM 32.3010 -96.8272 151° Southeast 450 518 24,600 1,680 Climbing FlightAware ADS-B
06:35PM 32.2070 -96.7858 160° South 446 513 26,000 1,680 Climbing FlightAware ADS-B
06:36PM 32.1110 -96.7490 162° South 453 521 27,400 1,680 Climbing FlightAware
06:36PM 32.0777 -96.7365 162° South 455 524 27,800 1,560 Climbing FlightAware ADS-B
06:37PM 31.9926 -96.7042 162° South 456 525 28,900 840 Climbing FlightAware ADS-B
06:38PM 31.9152 -96.6749 162° South 460 529 29,000 60 Climbing FlightAware ADS-B
06:38PM 31.8570 -96.6520 162° South 460 529 29,000  Level FlightAware
06:38PM 31.8325 -96.6426 162° South 460 529 29,000 600 Level FlightAware ADS-B
06:39PM 31.7741 -96.6184 161° South 462 532 29,400 900 Climbing FlightAware ADS-B
06:39PM 31.7655 -96.6147 160° South 462 532 29,500 1,200 Climbing FlightAware ADS-B
06:39PM 31.7127 -96.5929 161° South 463 533 30,000 1,260 Climbing FlightAware ADS-B
06:39PM 31.6904 -96.5837 161° South 463 533 30,300 1,620 Climbing FlightAware ADS-B
06:40PM 31.6474 -96.5661 161° South 461 531 30,900 1,620 Climbing FlightAware ADS-B
06:40PM 31.6171 -96.5538 161° South 460 529 31,300 1,380 Climbing FlightAware ADS-B
06:40PM 31.5870 -96.5415 161° South 460 529 31,600 1,140 Climbing FlightAware ADS-B
06:41PM 31.5547 -96.5283 161° South 463 533 31,900 1,020 Climbing FlightAware ADS-B
06:41PM 31.5307 -96.5167 158° South 471 542 32,100 1,020 Climbing FlightAware ADS-B
06:41PM 31.5074 -96.5032 154° Southeast 479 551 32,300 960 Climbing FlightAware ADS-B
06:41PM 31.5058 -96.5022 152° Southeast 479 551 32,300 600 Level FlightAware ADS-B
06:41PM 31.4889 -96.4909 150° Southeast 485 558 32,400 960 Climbing FlightAware ADS-B
06:41PM 31.4835 -96.4870 148° Southeast 487 560 32,500 1,140 Climbing FlightAware ADS-B
06:42PM 31.4292 -96.4462 147° Southeast 490 564 33,000 1,140 Climbing FlightAware ADS-B
06:42PM 31.4245 -96.4426 147° Southeast 490 564 33,100 1,260 Climbing FlightAware ADS-B
06:42PM 31.3666 -96.3989 147° Southeast 489 563 33,700 1,260 Climbing FlightAware ADS-B
06:43PM 31.3076 -96.3547 147° Southeast 485 558 34,400 1,260 Climbing FlightAware ADS-B
06:43PM 31.2510 -96.3124 147° Southeast 484 557 35,000 1,080 Climbing FlightAware ADS-B
06:43PM 31.2453 -96.3082 148° Southeast 484 557 35,000 780 Level FlightAware ADS-B
06:44PM 31.1939 -96.2700 148° Southeast 485 558 35,400 900 Climbing FlightAware ADS-B
06:44PM 31.1832 -96.2621 148° Southeast 484 557 35,500 1,380 Climbing FlightAware ADS-B
06:44PM 31.1373 -96.2279 147° Southeast 481 554 36,100 1,320 Climbing FlightAware ADS-B
06:44PM 31.1250 -96.2187 147° Southeast 480 552 36,200 1,140 Climbing FlightAware ADS-B
06:45PM 31.0806 -96.1857 148° Southeast 476 548 36,700 1,140 Climbing FlightAware ADS-B
06:45PM 31.0668 -96.1753 147° Southeast 476 548 36,800 600 Climbing FlightAware ADS-B
06:45PM 31.0244 -96.1439 148° Southeast 477 549 37,000 360 Climbing FlightAware ADS-B
06:45PM 31.0080 -96.1318 148° Southeast 478 550 37,000  Level FlightAware ADS-B
06:46PM 30.9684 -96.1025 148° Southeast 478 550 37,000  Level FlightAware ADS-B
06:46PM 30.9464 -96.0862 148° Southeast 479 551 37,000  Level FlightAware ADS-B
06:46PM 30.9116 -96.0604 148° Southeast 479 551 37,000  Level FlightAware ADS-B
06:47PM 30.8849 -96.0405 147° Southeast 479 551 37,000  Level FlightAware ADS-B
06:47PM 30.8547 -96.0181 148° Southeast 478 550 37,000  Level FlightAware ADS-B
06:47PM 30.8288 -95.9989 148° Southeast 478 550 37,000  Level FlightAware ADS-B
06:47PM 30.7982 -95.9764 148° Southeast 477 549 37,000  Level FlightAware ADS-B
06:48PM 30.7705 -95.9559 148° Southeast 477 549 37,000  Level FlightAware ADS-B
06:48PM 30.7420 -95.9349 148° Southeast 477 549 37,000  Level FlightAware ADS-B
06:48PM 30.7129 -95.9135 148° Southeast 478 550 37,000  Level FlightAware ADS-B
06:48PM 30.6850 -95.8930 148° Southeast 477 549 37,000  Level FlightAware ADS-B
06:49PM 30.6567 -95.8721 148° Southeast 479 551 37,000  Level FlightAware ADS-B
06:49PM 30.6291 -95.8519 148° Southeast 479 551 37,000  Level FlightAware ADS-B
06:49PM 30.5932 -95.8255 148° Southeast 479 551 37,000  Level FlightAware ADS-B
06:49PM 30.5707 -95.8090 148° Southeast 479 551 37,000  Level FlightAware ADS-B
06:50PM 30.5306 -95.7794 148° Southeast 480 552 37,000  Level FlightAware ADS-B
06:50PM 30.5119 -95.7656 148° Southeast 480 552 37,000  Level FlightAware ADS-B
06:50PM 30.4713 -95.7358 148° Southeast 481 554 37,000  Level FlightAware ADS-B
06:50PM 30.4525 -95.7220 148° Southeast 481 554 37,000  Level FlightAware ADS-B
06:51PM 30.4138 -95.6935 148° Southeast 482 555 37,000  Level FlightAware ADS-B
06:51PM 30.3959 -95.6804 148° Southeast 481 554 37,000  Level FlightAware ADS-B
06:51PM 30.3565 -95.6518 148° Southeast 482 555 37,000  Level FlightAware ADS-B
06:51PM 30.3367 -95.6374 148° Southeast 482 555 37,000  Level FlightAware ADS-B
06:52PM 30.2997 -95.6106 148° Southeast 483 556 37,000  Level FlightAware ADS-B
06:52PM 30.2793 -95.5958 148° Southeast 484 557 37,000  Level FlightAware ADS-B
06:52PM 30.2376 -95.5654 148° Southeast 484 557 37,000  Level FlightAware ADS-B
06:52PM 30.2221 -95.5541 148° Southeast 485 558 37,000  Level FlightAware ADS-B
06:53PM 30.1803 -95.5236 148° Southeast 485 558 37,000  Level FlightAware ADS-B
06:53PM 30.1643 -95.5119 148° Southeast 487 560 37,000  Level FlightAware ADS-B
06:53PM 30.1167 -95.4772 148° Southeast 488 562 37,000  Level FlightAware ADS-B
06:53PM 30.1060 -95.4694 148° Southeast 488 562 37,000  Level FlightAware ADS-B
06:54PM 30.0587 -95.4349 148° Southeast 488 562 37,000  Level FlightAware ADS-B
06:54PM 30.0478 -95.4270 148° Southeast 489 563 37,000  Level FlightAware ADS-B
06:54PM 30.0009 -95.3930 148° Southeast 489 563 37,000  Level FlightAware ADS-B
06:54PM 29.9896 -95.3849 148° Southeast 489 563 37,000  Level FlightAware ADS-B
06:55PM 29.9427 -95.3509 148° Southeast 489 563 37,000  Level FlightAware ADS-B
06:55PM 29.9306 -95.3422 148° Southeast 490 564 37,000  Level FlightAware ADS-B
06:55PM 29.8840 -95.3088 148° Southeast 491 565 37,000  Level FlightAware ADS-B
06:55PM 29.8725 -95.3005 148° Southeast 491 565 37,000  Level FlightAware ADS-B
06:56PM 29.8259 -95.2668 148° Southeast 491 565 37,000  Level FlightAware ADS-B
06:56PM 29.8130 -95.2576 148° Southeast 492 566 37,000  Level FlightAware ADS-B
06:56PM 29.7675 -95.2245 148° Southeast 492 566 37,000  Level FlightAware ADS-B
06:57PM 29.7493 -95.2114 148° Southeast 492 566 37,000  Level FlightAware ADS-B
06:57PM 29.7089 -95.1821 148° Southeast 492 566 37,000  Level FlightAware ADS-B
06:57PM 29.6907 -95.1691 148° Southeast 492 566 37,000  Level FlightAware ADS-B
06:57PM 29.6510 -95.1405 148° Southeast 491 565 37,000  Level FlightAware ADS-B
06:58PM 29.6299 -95.1254 148° Southeast 491 565 37,000  Level FlightAware ADS-B
06:58PM 29.5921 -95.0982 148° Southeast 490 564 37,000  Level FlightAware ADS-B
06:58PM 29.5714 -95.0833 148° Southeast 489 563 37,000  Level FlightAware ADS-B
06:58PM 29.5329 -95.0558 148° Southeast 487 560 37,000  Level FlightAware ADS-B
06:59PM 29.5126 -95.0413 148° Southeast 487 560 37,000  Level FlightAware ADS-B
06:59PM 29.4752 -95.0146 148° Southeast 487 560 37,000  Level FlightAware ADS-B
06:59PM 29.4537 -94.9992 148° Southeast 486 559 37,000  Level FlightAware ADS-B
06:59PM 29.4172 -94.9732 148° Southeast 486 559 37,000  Level FlightAware ADS-B
07:00PM 29.3950 -94.9574 148° Southeast 486 559 37,000  Level FlightAware ADS-B
07:00PM 29.3496 -94.9251 148° Southeast 486 559 37,000  Level FlightAware ADS-B
07:00PM 29.3224 -94.9057 148° Southeast 485 558 37,000  Level FlightAware ADS-B
07:00PM 29.2916 -94.8837 148° Southeast 485 558 37,000  Level FlightAware ADS-B
07:01PM 29.2430 -94.8492 148° Southeast 485 558 37,000  Level FlightAware ADS-B
07:01PM 29.2335 -94.8428 150° Southeast 483 556 37,000  Level FlightAware ADS-B
07:01PM 29.1801 -94.8067 149° Southeast 481 554 37,000  Level FlightAware ADS-B
07:02PM 29.1729 -94.8019 150° Southeast 481 554 37,000  Level FlightAware ADS-B
07:02PM 29.1134 -94.7618 150° Southeast 482 555 37,000  Level FlightAware ADS-B
07:03PM 29.0485 -94.7181 150° Southeast 484 557 37,000  Level FlightAware ADS-B
07:03PM 28.9900 -94.6786 149° Southeast 484 557 37,000  Level FlightAware ADS-B
07:04PM 28.9311 -94.6389 149° Southeast 487 560 37,000  Level FlightAware ADS-B
07:04PM 28.8717 -94.5989 149° Southeast 488 562 37,000  Level FlightAware ADS-B
07:05PM 28.8112 -94.5580 149° Southeast 485 558 37,000  Level FlightAware ADS-B
07:05PM 28.7481 -94.5152 149° Southeast 484 557 37,000  Level FlightAware ADS-B
07:06PM 28.6870 -94.4741 149° Southeast 486 559 37,000  Level FlightAware ADS-B
07:06PM 28.6075 -94.4210 150° Southeast 486 559 37,000  Level FlightAware ADS-B
07:07PM 28.5276 -94.3674 149° Southeast 486 559 37,000  Level FlightAware ADS-B
07:08PM 28.4673 -94.3269 149° Southeast 477 549 37,000  Level FlightAware ADS-B
07:08PM 28.3765 -94.2662 150° Southeast 476 548 37,000  Level FlightAware ADS-B
07:09PM 28.2890 -94.2080 150° Southeast 477 549 37,000  Level FlightAware
07:09PM 28.2796 -94.2018 150° Southeast 477 549 37,000  Level FlightAware ADS-B
07:10PM 28.2120 -94.1570 150° Southeast 478 550 37,000  Level FlightAware
07:10PM 28.1590 -94.1175 147° Southeast 492 566 37,000  Level FlightAware ADS-B
07:11PM 28.0570 -94.0410 146° Southeast 484 557 37,000  Level FlightAware
07:12PM 27.9940 -93.9920 146° Southeast 484 557 37,000  Level FlightAware
07:13PM 27.9310 -93.9440 146° Southeast 484 557 37,000  Level FlightAware
07:14PM 27.8520 -93.8840 146° Southeast 484 557 37,000  Level FlightAware
07:14PM 27.7890 -93.8360 146° Southeast 484 557 37,000  Level FlightAware
07:15PM 27.7260 -93.7880 146° Southeast 484 557 37,000  Level FlightAware
07:16PM 27.6630 -93.7400 146° Southeast 484 557 37,000  Level FlightAware
07:16PM 27.6000 -93.6920 146° Southeast 484 557 37,000  Level FlightAware
07:17PM 27.5210 -93.6320 146° Southeast 484 557 37,000  Level FlightAware
07:18PM 27.4580 -93.5840 146° Southeast 484 557 37,000  Level FlightAware
07:18PM 27.3950 -93.5360 146° Southeast 484 557 37,000  Level FlightAware
07:19PM 27.3310 -93.4880 146° Southeast 484 557 37,000  Level FlightAware
07:20PM 27.2680 -93.4400 146° Southeast 484 557 37,000  Level FlightAware
07:20PM 27.1383 -93.1539 146° Southeast 481 554 37,000  Level Houston Center
07:21PM 27.0364 -93.0564 140° Southeast 482 555 37,000  Level Houston Center
07:22PM 26.9294 -92.9592 141° Southeast 481 554 37,000  Level Houston Center
07:23PM 26.8258 -92.8636 141° Southeast 483 556 37,000  Level Houston Center
07:24PM 26.7189 -92.7792 145° Southeast 480 552 37,000  Level Houston Center
07:25PM 26.6061 -92.7089 151° Southeast 475 547 37,000  Level Houston Center
07:26PM 26.4708 -92.6258 151° Southeast 471 542 37,000  Level Houston Center
07:28PM 26.3512 -92.5455 149° Southeast  Level FlightAware Approximate
07:35PM 25.6186 -92.0663 148° Southeast  Level FlightAware Approximate
07:36PM 25.5159 -91.9944 148° Southeast  Level FlightAware Approximate
07:37PM 25.4132 -91.9225 148° Southeast  Level FlightAware Approximate
07:38PM 25.3101 -91.8517 150° Southeast  Level FlightAware Approximate
07:39PM 25.2052 -91.7841 150° Southeast  Level FlightAware Approximate
07:40PM 25.1002 -91.7166 150° Southeast  Level FlightAware Approximate
07:41PM 24.9952 -91.6492 150° Southeast  Level FlightAware Approximate
07:42PM 24.8902 -91.5820 150° Southeast  Level FlightAware Approximate
07:43PM 24.7851 -91.5149 150° Southeast  Level FlightAware Approximate
07:44PM 24.6800 -91.4478 150° Southeast  Level FlightAware Approximate
07:45PM 24.5749 -91.3809 150° Southeast  Level FlightAware Approximate
07:46PM 24.4682 -91.3174 155° Southeast  Level FlightAware Approximate
07:47PM 24.3577 -91.2621 155° Southeast  Level FlightAware Approximate
07:48PM 24.2468 -91.2078 158° South  Level FlightAware Approximate
07:49PM 24.1343 -91.1578 158° South  Level FlightAware Approximate
07:50PM 24.0232 -91.1040 156° South  Level FlightAware Approximate
07:51PM 23.9125 -91.0495 156° South  Level FlightAware Approximate
07:52PM 23.8017 -90.9951 156° South  Level FlightAware Approximate
07:53PM 23.6909 -90.9408 156° South  Level FlightAware Approximate
07:54PM 23.5801 -90.8866 156° South  Level FlightAware Approximate
07:55PM 23.4692 -90.8324 156° South  Level FlightAware Approximate
07:56PM 23.3584 -90.7784 156° South  Level FlightAware Approximate
07:57PM 23.2472 -90.7251 157° South  Level FlightAware Approximate
07:58PM 23.1357 -90.6727 157° South  Level FlightAware Approximate
07:59PM 23.0242 -90.6204 157° South  Level FlightAware Approximate
08:00PM 22.9127 -90.5681 157° South  Level FlightAware Approximate
08:01PM 22.8012 -90.5160 157° South  Level FlightAware Approximate
08:02PM 22.6896 -90.4639 157° South  Level FlightAware Approximate
08:03PM 22.5781 -90.4119 157° South  Level FlightAware Approximate
08:04PM 22.4666 -90.3599 157° South  Level FlightAware Approximate
08:05PM 22.3551 -90.3079 157° South  Level FlightAware Approximate
08:06PM 22.2435 -90.2559 157° South  Level FlightAware Approximate
08:07PM 22.1320 -90.2040 157° South  Level FlightAware Approximate
08:08PM 22.0205 -90.1522 157° South  Level FlightAware Approximate
08:09PM 21.9089 -90.1004 157° South  Level FlightAware Approximate
08:10PM 21.7973 -90.0488 157° South  Level FlightAware Approximate
08:11PM 21.6857 -89.9972 157° South  Level FlightAware Approximate
08:12PM 21.5741 -89.9457 157° South  Level FlightAware Approximate
08:13PM 21.4626 -89.8941 157° South  Level FlightAware Approximate
08:14PM 21.3510 -89.8425 157° South  Level FlightAware Approximate
08:15PM 21.2393 -89.7909 157° South  Level FlightAware Approximate
08:16PM 21.1276 -89.7394 157° South  Level FlightAware Approximate
08:17PM 21.0159 -89.6880 157° South  Level FlightAware Approximate
08:18PM 20.9017 -89.6475 176° South  Level FlightAware Approximate
08:19PM 20.7804 -89.6379 176° South  Level FlightAware Approximate
08:20PM 20.6591 -89.6283 176° South  Level FlightAware Approximate
08:21PM 20.5379 -89.6187 176° South  Level FlightAware Approximate
08:22PM 20.4166 -89.6092 176° South  Level FlightAware Approximate
08:23PM 20.2953 -89.5996 176° South  Level FlightAware Approximate
08:24PM 20.1740 -89.5901 176° South  Level FlightAware Approximate
08:25PM 20.0528 -89.5806 176° South  Level FlightAware Approximate
08:26PM 19.9315 -89.5711 176° South  Level FlightAware Approximate
08:27PM 19.8102 -89.5616 176° South  Level FlightAware Approximate
08:28PM 19.6890 -89.5521 176° South  Level FlightAware Approximate
08:29PM 19.5677 -89.5427 176° South  Level FlightAware Approximate
08:30PM 19.4464 -89.5332 176° South  Level FlightAware Approximate
08:31PM 19.3252 -89.5238 176° South  Level FlightAware Approximate
08:32PM 19.2038 -89.5153 177° South  Level FlightAware Approximate
08:33PM 19.0823 -89.5096 177° South  Level FlightAware Approximate
08:34PM 18.9609 -89.5039 177° South  Level FlightAware Approximate
08:35PM 18.8394 -89.4982 177° South  Level FlightAware Approximate
08:36PM 18.7179 -89.4926 177° South  Level FlightAware Approximate
08:37PM 18.5964 -89.4869 177° South  Level FlightAware Approximate
08:38PM 18.4750 -89.4812 177° South  Level FlightAware Approximate
08:39PM 18.3535 -89.4756 177° South  Level FlightAware Approximate
08:40PM 18.2320 -89.4700 177° South  Level FlightAware Approximate
08:41PM 18.1105 -89.4643 177° South  Level FlightAware Approximate
08:42PM 17.9890 -89.4587 177° South  Level FlightAware Approximate
08:43PM 17.8675 -89.4531 177° South  Level FlightAware Approximate
08:44PM 17.7463 -89.4440 174° South  Level FlightAware Approximate
08:45PM 17.6253 -89.4312 175° South  Level FlightAware Approximate
08:46PM 17.5041 -89.4209 175° South  Level FlightAware Approximate
08:47PM 17.3829 -89.4105 175° South  Level FlightAware Approximate
08:48PM 17.2617 -89.4002 175° South  Level FlightAware Approximate
08:49PM 17.1405 -89.3899 175° South  Level FlightAware Approximate
08:50PM 17.0193 -89.3796 175° South  Level FlightAware Approximate
08:51PM 16.8981 -89.3693 175° South  Level FlightAware Approximate
08:52PM 16.7803 -89.3798 213° Southwest  Level FlightAware Approximate
08:53PM 16.6773 -89.4472 210° Southwest  Level FlightAware Approximate
08:54PM 16.5723 -89.5112 210° Southwest  Level FlightAware Approximate
08:55PM 16.4672 -89.5751 210° Southwest  Level FlightAware Approximate
08:56PM 16.3622 -89.6390 210° Southwest  Level FlightAware Approximate
08:57PM 16.2546 -89.6977 206° Southwest  Level FlightAware Approximate
08:58PM 16.1501 -89.7625 211° Southwest  Level FlightAware Approximate
08:59PM 16.0485 -89.8320 214° Southwest  Level FlightAware Approximate
09:00PM 15.9457 -89.8993 210° Southwest  Level FlightAware Approximate
09:01PM 15.8404 -89.9625 210° Southwest  Level FlightAware Approximate
09:02PM 15.7346 -90.0249 207° Southwest  Level FlightAware Approximate
09:03PM 15.6265 -90.0826 207° Southwest  Level FlightAware Approximate
09:04PM 15.5183 -90.1403 207° Southwest  Level FlightAware Approximate
09:05PM 15.4150 -90.2067 213° Southwest  Level FlightAware Approximate
09:06PM 15.3127 -90.2749 213° Southwest  Level FlightAware Approximate
09:07PM 15.2088 -90.3403 211° Southwest  Level FlightAware Approximate
09:08PM 15.1040 -90.4043 210° Southwest  Level FlightAware Approximate
09:09PM 14.9986 -90.4667 180° South  Level FlightAware Approximate
09:10PM 14.8774 -90.4756 186° South  Level FlightAware Approximate
09:11PM 14.7583 -90.4972 198° South  Level FlightAware Approximate
09:12PM 14.6386 -90.5156 191° South  Level FlightAware Approximate
09:13PM 14.5833 -90.5275 180° South  Level Estimated
09:14PM 14.5833 -90.5275 180° South  Level Estimated